Terminal Aerodrome Forecast
Issued by NWS Greer, SC

Home | Current Version | Previous Version | Text Only | Print | Product List | Glossary On
Versions: 1 2 3 4 5 6 7 8 9 10 11 12 13 14 15 16 17 18 19 20 21 22 23 24 25 26 27 28 29 30 31 32 33 34 35 36 37 38 39 40 41 42 43 44 45 46 47 48 49 50
000
FTUS42 KGSP 240200 AAA
TAFAVL
TAF AMD
KAVL 240241Z 2403/2424 33005KT P6SM SCT060 BKN120
     FM240600 33004KT P6SM SCT010 BKN060
     FM240900 33004KT 3SM BR OVC003
     FM241400 32005KT P6SM VCSH SCT010 BKN040
     FM241600 32006KT P6SM -SHRA VCTS BKN035CB PROB30 2417/2421 3SM
      TSRA BKN025CB=

USA.gov is the U.S. government's official web portal to all federal, state and local government web resources and services.